Etusivu
METAR-TAF:

METAR-TAF

Lentoasemat :

Adrian, Michigan, Yhdysvallat

Leveyspiiri: 41-52-04N, Pituuspiiri: 084-04-46W, korkeus merenpinnasta: 244 m

Tämänhetkinen sää

Tämä raportti tehtiin 34 minuuttia sitten, kello 04.53 UTC
Tuuli 3 kn luoteesta
Lämpötila 0°C
Kosteus 93%
Ilmanpaine 1007 hPa
Näkyvyys: 9.7 km
Hajonneita pilviä 4000 ft:n korkeudessa
utua

METAR: KADG 190453Z AUTO 31003KT 6SM BR BKN040 00/M01 A2975 RMK AO2 SLP082 T00001011 400831017

Aika: 00:27 (05:27 UTC)


TAF: puuttuu

Säähavainnot ja -ennusteet yli 4000 lentoasemalta (METAR- ja TAF-raportit).

Käytössä olevat sääasemat on merkitty karttaan keltaisilla ja punaisilla pisteillä.

Aseta hiiri pisteen päälle nähdäksesi sääaseman nimen.

Klikkaa sitten nähdäksesi säähavainnot ja -ennusteet.

Kartan vaihtaminen: klikkaa mustalla rastilla varustettuja vihreitä pisteitä, niin voit zoomata sisään; viivalla varustettua vihreää pistettä, niin voit zoomata ulos tai vihreitä nuolia, niin pääset viereisille kartoille.


METAR-TAF: